Time;durP1;ratioP1;P1;durP2;ratioP2;P2;SDS_P1;SDS_P2;PMS_P1;PMS_P2;Temp;Humidity;BMP_temperature;BMP_pressure;BME280_temperature;BME280_humidity;BME280_pressure;Samples;Min_cycle;Max_cycle;Signal;HPM_P1;HPM_P2
2023/05/10 00:01:07;;;;;;;12.30;2.25;;;18.50;74.20;;;;;;6214507;23;20055;-69
2023/05/10 00:03:33;;;;;;;11.38;2.92;;;18.50;74.40;;;;;;6216175;23;20088;-69
2023/05/10 00:05:58;;;;;;;10.95;2.35;;;18.50;74.50;;;;;;6215774;23;19997;-69
2023/05/10 00:08:24;;;;;;;8.68;2.38;;;18.40;74.60;;;;;;6215919;23;20008;-69
2023/05/10 00:10:50;;;;;;;12.63;2.75;;;18.50;74.80;;;;;;6216179;23;20001;-69
2023/05/10 00:13:15;;;;;;;7.25;2.20;;;18.40;74.80;;;;;;6214143;23;20326;-69
2023/05/10 00:15:41;;;;;;;7.22;2.00;;;18.40;74.70;;;;;;6216011;23;20495;-69
2023/05/10 00:18:06;;;;;;;11.00;2.33;;;18.50;75.00;;;;;;6214693;23;20055;-69
2023/05/10 00:20:32;;;;;;;11.52;2.47;;;18.40;74.90;;;;;;6214373;23;20055;-69
2023/05/10 00:22:58;;;;;;;8.07;1.70;;;18.50;75.00;;;;;;6189435;23;20005;-69
2023/05/10 00:25:23;;;;;;;8.23;1.95;;;18.50;75.00;;;;;;6215701;23;20348;-69
2023/05/10 00:27:49;;;;;;;7.53;2.30;;;18.50;75.00;;;;;;6215675;23;20432;-69
2023/05/10 00:30:15;;;;;;;9.02;1.80;;;18.50;75.00;;;;;;6215833;23;20000;-69
2023/05/10 00:32:41;;;;;;;11.65;2.28;;;18.50;75.00;;;;;;6214521;23;20005;-69
2023/05/10 00:35:07;;;;;;;8.88;2.22;;;18.50;74.90;;;;;;6214179;23;20079;-69
2023/05/10 00:37:33;;;;;;;7.50;2.03;;;18.50;75.00;;;;;;6216105;23;20436;-69
2023/05/10 00:39:59;;;;;;;10.30;2.20;;;18.50;75.00;;;;;;6215673;23;20005;-69
2023/05/10 00:42:24;;;;;;;7.15;2.20;;;18.40;75.00;;;;;;6213932;23;20326;-69
2023/05/10 00:44:50;;;;;;;9.90;2.53;;;18.50;75.00;;;;;;6214333;23;20000;-69
2023/05/10 00:47:16;;;;;;;8.95;2.40;;;18.40;75.10;;;;;;6214035;23;20401;-69
2023/05/10 00:49:42;;;;;;;8.82;1.83;;;18.40;75.00;;;;;;6189416;23;20005;-71
2023/05/10 00:52:08;;;;;;;7.22;2.47;;;18.40;75.10;;;;;;6214139;23;20514;-70
2023/05/10 00:54:34;;;;;;;8.35;2.08;;;18.50;75.20;;;;;;6214089;23;20008;-69
2023/05/10 00:56:59;;;;;;;9.38;3.05;;;18.40;75.30;;;;;;6213966;23;20472;-69
2023/05/10 00:59:26;;;;;;;7.20;2.15;;;18.40;75.30;;;;;;6215344;23;20425;-70
2023/05/10 01:01:51;;;;;;;10.55;2.38;;;18.40;75.30;;;;;;6215425;23;20047;-69
2023/05/10 01:04:17;;;;;;;6.35;2.20;;;18.40;75.30;;;;;;6189105;23;20001;-69
2023/05/10 01:06:43;;;;;;;10.27;1.80;;;18.40;75.40;;;;;;6214001;23;20052;-69
2023/05/10 01:09:09;;;;;;;10.05;2.50;;;18.40;75.30;;;;;;6213657;23;20028;-70
2023/05/10 01:11:38;;;;;;;13.40;2.30;;;18.40;75.40;;;;;;6213671;23;19997;-69
2023/05/10 01:14:04;;;;;;;8.88;2.17;;;18.40;75.40;;;;;;6214067;23;20035;-69
2023/05/10 01:16:32;;;;;;;6.30;1.90;;;18.40;75.50;;;;;;6213884;23;20023;-69
2023/05/10 01:18:57;;;;;;;7.95;1.70;;;18.40;75.40;;;;;;6189227;23;20001;-69
2023/05/10 01:21:49;;;;;;;10.55;2.40;;;18.40;75.50;;;;;;6213759;23;20476;-69
2023/05/10 01:24:52;;;;;;;13.33;2.97;;;18.30;75.40;;;;;;6190838;23;20020;-69
2023/05/10 01:27:35;;;;;;;7.32;2.10;;;18.40;75.40;;;;;;6215155;23;19996;-69
2023/05/10 01:30:19;;;;;;;5.53;1.58;;;18.40;75.50;;;;;;6215369;23;20001;-69
2023/05/10 01:32:56;;;;;;;10.65;1.95;;;18.40;75.50;;;;;;6215321;23;20001;-69
2023/05/10 01:35:53;;;;;;;14.48;2.72;;;18.30;75.50;;;;;;6215066;23;20012;-69
2023/05/10 01:38:30;;;;;;;10.65;2.10;;;18.30;75.50;;;;;;6190332;23;20009;-68
2023/05/10 01:41:17;;;;;;;6.68;1.88;;;18.30;75.50;;;;;;6190332;23;20000;-69
2023/05/10 01:44:06;;;;;;;8.40;2.35;;;18.30;75.50;;;;;;6214347;23;20004;-70
2023/05/10 01:46:39;;;;;;;9.57;1.92;;;18.30;75.50;;;;;;6196446;23;20456;-69
2023/05/10 01:49:22;;;;;;;8.93;2.00;;;18.30;75.50;;;;;;6213829;23;20349;-69
2023/05/10 01:51:51;;;;;;;8.15;2.00;;;18.30;75.50;;;;;;6215425;23;20072;-69
2023/05/10 01:54:18;;;;;;;9.55;2.25;;;18.30;75.50;;;;;;6215481;23;20003;-70
2023/05/10 01:56:44;;;;;;;18.55;2.42;;;18.30;75.60;;;;;;6189029;23;20005;-69
2023/05/10 01:59:13;;;;;;;8.48;1.77;;;18.30;75.60;;;;;;6164029;23;19997;-70
2023/05/10 02:01:38;;;;;;;10.10;2.03;;;18.30;75.50;;;;;;6213870;23;20000;-69
2023/05/10 02:04:05;;;;;;;8.15;1.85;;;18.30;75.50;;;;;;6189195;23;20392;-69
2023/05/10 02:06:31;;;;;;;8.77;1.75;;;18.30;75.60;;;;;;6188254;23;20013;-69
2023/05/10 02:08:56;;;;;;;9.75;2.50;;;18.30;75.50;;;;;;6213963;23;20460;-69
2023/05/10 02:11:23;;;;;;;12.20;1.92;;;18.30;75.60;;;;;;6186866;23;20005;-69
2023/05/10 02:13:49;;;;;;;7.20;1.75;;;18.30;75.60;;;;;;6187260;23;20005;-69
2023/05/10 02:16:15;;;;;;;8.20;2.30;;;18.30;75.60;;;;;;6187256;23;20051;-69
2023/05/10 02:18:40;;;;;;;11.63;2.55;;;18.30;75.60;;;;;;6187181;23;20001;-69
2023/05/10 02:21:06;;;;;;;6.82;1.92;;;18.30;75.70;;;;;;6187567;23;20012;-70
2023/05/10 02:23:31;;;;;;;6.50;2.03;;;18.30;75.70;;;;;;6187086;23;20001;-69
2023/05/10 02:25:57;;;;;;;8.00;2.10;;;18.30;75.70;;;;;;6212504;23;20433;-69
2023/05/10 02:28:23;;;;;;;5.10;1.70;;;18.30;75.70;;;;;;6213289;23;20346;-70
2023/05/10 02:30:49;;;;;;;8.35;2.10;;;18.30;75.70;;;;;;6188319;23;20032;-69
2023/05/10 02:33:14;;;;;;;7.50;2.45;;;18.20;75.60;;;;;;6188320;23;20380;-69
2023/05/10 02:35:40;;;;;;;9.20;2.50;;;18.20;75.60;;;;;;6187321;23;20417;-69
2023/05/10 02:38:06;;;;;;;8.32;2.17;;;18.20;75.60;;;;;;6188130;23;20008;-70
2023/05/10 02:40:31;;;;;;;6.68;2.03;;;18.20;75.60;;;;;;6214401;23;20004;-69
2023/05/10 02:42:57;;;;;;;7.53;1.60;;;18.20;75.60;;;;;;6188374;23;19997;-69
2023/05/10 02:45:24;;;;;;;9.65;2.58;;;18.20;75.60;;;;;;6188153;23;20027;-70
2023/05/10 02:47:50;;;;;;;9.20;2.50;;;18.20;75.60;;;;;;6188481;23;20088;-70
2023/05/10 02:50:16;;;;;;;7.95;2.05;;;18.20;75.60;;;;;;6188327;23;20036;-69
2023/05/10 02:52:47;;;;;;;9.98;2.30;;;18.20;76.70;;;;;;6212857;23;20008;-69
2023/05/10 02:55:15;;;;;;;7.18;2.13;;;18.20;75.70;;;;;;6213234;23;20012;-69
2023/05/10 02:57:51;;;;;;;6.60;1.70;;;18.20;75.60;;;;;;6188265;23;20001;-69
2023/05/10 03:00:17;;;;;;;7.07;1.88;;;18.20;75.60;;;;;;6190124;23;20012;-69
2023/05/10 03:02:42;;;;;;;9.55;1.80;;;18.20;75.70;;;;;;6214793;23;19997;-69
2023/05/10 03:05:08;;;;;;;8.10;2.03;;;18.20;75.60;;;;;;6214616;23;20492;-69
2023/05/10 03:07:34;;;;;;;9.00;1.85;;;18.20;75.70;;;;;;6212589;23;20091;-69
2023/05/10 03:10:00;;;;;;;6.68;1.80;;;18.20;75.70;;;;;;6188041;23;20005;-69
2023/05/10 03:12:53;;;;;;;7.05;1.80;;;18.20;75.80;;;;;;6213091;23;20448;-69
2023/05/10 03:15:28;;;;;;;8.73;1.75;;;18.20;75.90;;;;;;6214502;23;20385;-70
2023/05/10 03:18:01;;;;;;;8.30;1.60;;;18.20;75.90;;;;;;6213157;23;20036;-69
2023/05/10 03:20:35;;;;;;;6.45;1.80;;;18.20;76.00;;;;;;6212435;23;20011;-69
2023/05/10 03:23:12;;;;;;;7.20;1.88;;;18.20;75.90;;;;;;6163865;23;20036;-69
2023/05/10 03:25:38;;;;;;;8.55;1.50;;;18.20;75.90;;;;;;6213014;23;20003;-70
2023/05/10 03:28:03;;;;;;;5.82;1.77;;;18.20;76.00;;;;;;6187937;23;20000;-69
2023/05/10 03:30:29;;;;;;;8.18;1.60;;;18.20;75.90;;;;;;6188015;23;20000;-70
2023/05/10 03:32:55;;;;;;;9.70;2.22;;;18.10;75.90;;;;;;6213659;23;20005;-69
2023/05/10 03:35:20;;;;;;;9.25;2.17;;;18.10;75.90;;;;;;6189611;23;20004;-70
2023/05/10 03:37:47;;;;;;;8.20;2.17;;;18.10;75.80;;;;;;6214634;23;20001;-69
2023/05/10 03:40:13;;;;;;;5.03;1.83;;;18.10;75.90;;;;;;6216451;23;20001;-69
2023/05/10 03:42:38;;;;;;;6.70;1.92;;;18.20;76.00;;;;;;6214805;23;20046;-69
2023/05/10 03:45:04;;;;;;;7.78;1.75;;;18.10;75.90;;;;;;6216254;23;20072;-70
2023/05/10 03:47:30;;;;;;;4.43;1.92;;;18.10;76.00;;;;;;6216257;23;20027;-69
2023/05/10 03:49:55;;;;;;;7.60;1.67;;;18.10;76.00;;;;;;6214567;23;20012;-69
2023/05/10 03:52:21;;;;;;;8.38;1.67;;;18.10;75.90;;;;;;6216148;23;20028;-70
2023/05/10 03:54:47;;;;;;;6.20;2.00;;;18.20;76.00;;;;;;6216123;23;20001;-70
2023/05/10 03:57:12;;;;;;;6.60;1.90;;;18.10;76.00;;;;;;6216244;23;20000;-70
2023/05/10 03:59:38;;;;;;;5.60;1.70;;;18.10;76.00;;;;;;6216002;23;20005;-69
2023/05/10 04:02:03;;;;;;;7.65;1.70;;;18.10;76.00;;;;;;6216135;23;20027;-70
2023/05/10 04:04:29;;;;;;;7.60;1.88;;;18.10;76.00;;;;;;6215724;23;20464;-69
2023/05/10 04:06:55;;;;;;;5.07;1.60;;;18.10;76.00;;;;;;6216034;23;20009;-69
2023/05/10 04:09:20;;;;;;;4.53;1.40;;;18.10;76.00;;;;;;6216056;23;19996;-69
2023/05/10 04:11:46;;;;;;;6.15;1.95;;;18.10;76.00;;;;;;6215864;23;20131;-69
2023/05/10 04:14:11;;;;;;;4.20;1.60;;;18.10;76.10;;;;;;6214658;23;20008;-69
2023/05/10 04:16:37;;;;;;;6.40;1.50;;;18.10;76.20;;;;;;6215943;23;20388;-69
2023/05/10 04:19:03;;;;;;;6.47;1.80;;;18.10;76.20;;;;;;6214305;23;20027;-70
2023/05/10 04:21:29;;;;;;;9.07;1.63;;;18.10;76.20;;;;;;6215651;23;20012;-70
2023/05/10 04:23:54;;;;;;;5.47;1.52;;;18.10;76.20;;;;;;6215979;23;20000;-69
2023/05/10 04:26:20;;;;;;;5.00;1.42;;;18.10;76.20;;;;;;6215991;23;19996;-69
2023/05/10 04:28:46;;;;;;;7.72;1.83;;;18.10;76.30;;;;;;6214388;23;20003;-69
2023/05/10 04:31:12;;;;;;;6.05;2.15;;;18.10;76.20;;;;;;6214509;23;20015;-69
2023/05/10 04:33:37;;;;;;;7.28;1.60;;;18.10;76.30;;;;;;6214092;23;20009;-69
2023/05/10 04:36:03;;;;;;;9.48;2.05;;;18.10;76.30;;;;;;6215910;23;20001;-69
2023/05/10 04:38:29;;;;;;;4.40;1.67;;;18.10;76.30;;;;;;6215760;23;20005;-69
2023/05/10 04:41:08;;;;;;;6.80;1.95;;;18.10;76.40;;;;;;6215717;23;20425;-69
2023/05/10 04:43:34;;;;;;;6.63;1.95;;;18.10;76.40;;;;;;6214251;23;20001;-69
2023/05/10 04:45:59;;;;;;;7.38;1.98;;;18.10;76.40;;;;;;6189267;23;20047;-69
2023/05/10 04:48:25;;;;;;;6.43;1.77;;;18.10;76.40;;;;;;6215417;23;20067;-69
2023/05/10 04:50:51;;;;;;;7.45;1.75;;;18.00;76.40;;;;;;6214265;23;20084;-69
2023/05/10 04:53:16;;;;;;;5.32;1.58;;;18.10;76.50;;;;;;6215503;23;20076;-69
2023/05/10 04:55:42;;;;;;;8.23;2.10;;;18.10;76.50;;;;;;6215510;23;20007;-69
2023/05/10 04:58:08;;;;;;;5.32;1.55;;;18.00;76.50;;;;;;6215753;23;20011;-69
2023/05/10 05:00:33;;;;;;;5.10;1.60;;;18.10;76.50;;;;;;6215251;23;20445;-69
2023/05/10 05:02:59;;;;;;;4.35;1.45;;;18.00;76.50;;;;;;6215319;23;20047;-69
2023/05/10 05:05:25;;;;;;;6.78;1.70;;;18.00;76.50;;;;;;6214116;23;20455;-69
2023/05/10 05:07:50;;;;;;;7.00;2.05;;;18.00;76.50;;;;;;6215255;23;20023;-69
2023/05/10 05:10:16;;;;;;;6.50;1.70;;;18.00;76.50;;;;;;6215465;23;20445;-69
2023/05/10 05:12:42;;;;;;;6.32;1.80;;;18.00;76.50;;;;;;6215380;23;20012;-69
2023/05/10 05:15:09;;;;;;;6.30;1.88;;;18.00;77.50;;;;;;6215791;23;20005;-69
2023/05/10 05:17:35;;;;;;;8.02;2.22;;;18.00;76.50;;;;;;6215233;23;20075;-69
2023/05/10 05:20:00;;;;;;;5.75;2.17;;;18.00;76.50;;;;;;6213886;23;20042;-69
2023/05/10 05:22:29;;;;;;;5.68;1.60;;;18.00;76.60;;;;;;6215309;23;19998;-70
2023/05/10 05:24:55;;;;;;;5.57;1.85;;;18.00;76.60;;;;;;6215354;23;20072;-69
2023/05/10 05:27:23;;;;;;;7.90;1.77;;;18.00;76.60;;;;;;6188743;23;19997;-69
2023/05/10 05:29:50;;;;;;;6.03;1.58;;;18.00;76.60;;;;;;6213782;23;20039;-69
2023/05/10 05:32:16;;;;;;;4.35;1.17;;;18.00;76.60;;;;;;6213627;23;20007;-69
2023/05/10 05:34:43;;;;;;;9.70;2.05;;;18.00;76.60;;;;;;6214987;23;20024;-69
2023/05/10 05:37:15;;;;;;;6.93;1.67;;;18.00;76.70;;;;;;6213817;23;20005;-69
2023/05/10 05:39:42;;;;;;;7.17;1.97;;;18.00;76.70;;;;;;6215103;23;20047;-69
2023/05/10 05:42:08;;;;;;;4.90;1.45;;;18.00;76.80;;;;;;6213792;23;20004;-69
2023/05/10 05:44:34;;;;;;;6.32;1.98;;;18.00;76.70;;;;;;6213522;23;20028;-70
2023/05/10 05:46:59;;;;;;;9.25;2.28;;;18.00;76.60;;;;;;6214784;23;20333;-69
2023/05/10 05:49:25;;;;;;;5.45;1.25;;;18.00;76.70;;;;;;6213635;23;20349;-69
2023/05/10 05:51:51;;;;;;;6.40;1.65;;;18.00;76.80;;;;;;6214874;23;20000;-69
2023/05/10 05:54:16;;;;;;;4.35;1.70;;;18.00;76.70;;;;;;6215177;23;20004;-69
2023/05/10 05:56:42;;;;;;;5.40;1.55;;;18.00;76.70;;;;;;6214584;23;20386;-69
2023/05/10 05:59:07;;;;;;;9.07;2.17;;;18.00;76.70;;;;;;6213855;23;20024;-69
2023/05/10 06:01:33;;;;;;;7.43;1.80;;;18.00;76.80;;;;;;6214958;23;20066;-70
2023/05/10 06:03:59;;;;;;;8.25;1.90;;;18.00;76.70;;;;;;6214916;23;20391;-69
2023/05/10 06:06:25;;;;;;;5.18;1.38;;;18.00;76.80;;;;;;6215390;23;20019;-69
2023/05/10 06:08:51;;;;;;;7.32;2.25;;;18.00;76.90;;;;;;6215521;23;20004;-69
2023/05/10 06:11:16;;;;;;;6.93;1.83;;;18.00;76.90;;;;;;6215276;23;20340;-69
2023/05/10 06:13:42;;;;;;;6.32;1.65;;;18.00;77.00;;;;;;6215360;23;20028;-69
2023/05/10 06:16:08;;;;;;;5.78;1.60;;;18.00;76.90;;;;;;6215295;23;20072;-70
2023/05/10 06:18:34;;;;;;;7.93;1.48;;;18.00;76.90;;;;;;6214007;23;20001;-69
2023/05/10 06:21:00;;;;;;;10.50;2.03;;;18.00;77.00;;;;;;6215236;23;20172;-69
2023/05/10 06:23:26;;;;;;;4.43;1.67;;;17.90;77.00;;;;;;6215603;23;20085;-69
2023/05/10 06:25:52;;;;;;;4.82;1.55;;;17.90;76.90;;;;;;6215022;23;20000;-69
2023/05/10 06:28:17;;;;;;;6.93;1.63;;;18.00;77.00;;;;;;6215361;23;20108;-69
2023/05/10 06:30:43;;;;;;;5.97;1.60;;;18.00;77.00;;;;;;6214186;23;20005;-69
2023/05/10 06:33:08;;;;;;;7.72;1.48;;;17.90;77.00;;;;;;6215248;23;20008;-69
2023/05/10 06:35:34;;;;;;;4.75;1.50;;;18.00;77.00;;;;;;6215430;23;20051;-69
2023/05/10 06:38:00;;;;;;;7.05;2.40;;;17.90;77.10;;;;;;6214665;23;20004;-69
2023/05/10 06:40:25;;;;;;;9.23;1.75;;;18.00;77.20;;;;;;6214505;23;20008;-69
2023/05/10 06:42:51;;;;;;;7.18;1.40;;;17.90;77.10;;;;;;6214625;23;19996;-68
2023/05/10 06:45:17;;;;;;;9.70;1.80;;;18.00;76.80;;;;;;6214669;23;20011;-68
2023/05/10 06:47:43;;;;;;;7.78;2.35;;;18.00;74.90;;;;;;6213213;23;19996;-69
2023/05/10 06:50:09;;;;;;;4.90;1.40;;;18.00;75.00;;;;;;6188291;23;20009;-68
2023/05/10 06:52:34;;;;;;;13.18;5.75;;;18.00;75.40;;;;;;6214608;23;20059;-68
2023/05/10 06:55:00;;;;;;;8.05;2.88;;;17.90;75.70;;;;;;6213257;23;20008;-68
2023/05/10 06:57:26;;;;;;;5.03;2.47;;;17.90;75.70;;;;;;6214535;23;20004;-68
2023/05/10 06:59:52;;;;;;;7.75;3.40;;;17.90;75.70;;;;;;6214127;23;20075;-68
2023/05/10 07:02:17;;;;;;;9.82;5.18;;;17.90;75.80;;;;;;6214784;23;20383;-69
2023/05/10 07:04:43;;;;;;;16.20;8.65;;;17.90;76.20;;;;;;6213048;23;20001;-68
2023/05/10 07:07:09;;;;;;;21.10;11.93;;;18.00;76.80;;;;;;6214202;23;20013;-68
2023/05/10 07:09:35;;;;;;;25.27;14.32;;;17.90;78.00;;;;;;6216747;23;20000;-68
2023/05/10 07:12:01;;;;;;;24.00;15.80;;;18.00;79.60;;;;;;6216255;23;20012;-68
2023/05/10 07:14:27;;;;;;;28.27;18.30;;;18.00;80.90;;;;;;6216634;23;20005;-68
2023/05/10 07:16:53;;;;;;;32.20;19.73;;;18.10;82.70;;;;;;6216711;23;20005;-68
2023/05/10 07:19:19;;;;;;;34.83;23.10;;;18.20;84.60;;;;;;6216481;23;20001;-69
2023/05/10 07:21:45;;;;;;;35.28;22.85;;;18.20;85.50;;;;;;6216364;23;20570;-68
2023/05/10 07:24:11;;;;;;;39.42;23.92;;;18.20;85.30;;;;;;6216604;23;19996;-69
2023/05/10 07:26:36;;;;;;;40.58;22.90;;;18.30;85.80;;;;;;6216295;23;20000;-69
2023/05/10 07:29:02;;;;;;;35.40;23.45;;;18.30;86.60;;;;;;6214788;23;20068;-74
2023/05/10 07:31:28;;;;;;;37.80;23.05;;;18.30;86.50;;;;;;6216260;23;20471;-72
2023/05/10 07:33:53;;;;;;;38.28;22.20;;;18.40;85.20;;;;;;6216909;23;20004;-72
2023/05/10 07:36:19;;;;;;;35.25;23.67;;;18.60;84.50;;;;;;6215577;23;20000;-72
2023/05/10 07:38:44;;;;;;;39.85;22.80;;;18.60;84.40;;;;;;6217027;23;20072;-72
2023/05/10 07:41:11;;;;;;;39.38;23.48;;;18.60;83.90;;;;;;6216369;23;20075;-72
2023/05/10 07:43:37;;;;;;;36.58;22.00;;;18.70;83.50;;;;;;6215082;23;19996;-72
2023/05/10 07:46:03;;;;;;;31.88;21.27;;;18.80;82.90;;;;;;6216840;23;20001;-72
2023/05/10 07:48:29;;;;;;;30.95;21.58;;;18.80;82.30;;;;;;6216916;23;19997;-73
2023/05/10 07:50:54;;;;;;;32.45;20.70;;;18.90;81.70;;;;;;6216888;23;20004;-73
2023/05/10 07:53:20;;;;;;;32.67;19.08;;;18.90;81.20;;;;;;6216809;23;20004;-72
2023/05/10 07:55:58;;;;;;;32.42;19.88;;;19.00;81.00;;;;;;6215072;23;20008;-73
2023/05/10 07:58:24;;;;;;;28.65;19.38;;;19.00;80.40;;;;;;6215455;23;20005;-73
2023/05/10 08:00:49;;;;;;;28.80;19.63;;;19.00;80.90;;;;;;6190169;23;20043;-73
2023/05/10 08:03:15;;;;;;;28.88;19.20;;;19.00;81.10;;;;;;6216506;23;20004;-73
2023/05/10 08:05:41;;;;;;;29.15;19.10;;;19.00;80.70;;;;;;6215376;23;19996;-73
2023/05/10 08:08:06;;;;;;;29.73;19.27;;;19.00;80.40;;;;;;6190298;23;20017;-73
2023/05/10 08:10:32;;;;;;;30.38;18.38;;;19.10;80.20;;;;;;6216502;23;20027;-73
2023/05/10 08:12:58;;;;;;;26.63;18.98;;;19.10;79.90;;;;;;6215013;23;20043;-73
2023/05/10 08:15:25;;;;;;;29.60;18.20;;;19.10;79.80;;;;;;6215022;23;20047;-73
2023/05/10 08:17:51;;;;;;;25.67;17.77;;;19.10;79.40;;;;;;6214944;23;20357;-73
2023/05/10 08:20:18;;;;;;;26.88;16.95;;;19.20;79.40;;;;;;6216502;23;20000;-72
2023/05/10 08:22:45;;;;;;;26.40;17.95;;;19.10;78.90;;;;;;6216514;23;20001;-72
2023/05/10 08:25:10;;;;;;;23.52;15.82;;;19.20;78.70;;;;;;6216406;23;20074;-71
2023/05/10 08:27:36;;;;;;;24.35;16.65;;;19.10;78.50;;;;;;6215263;23;20384;-71
2023/05/10 08:30:02;;;;;;;27.90;16.30;;;19.10;78.60;;;;;;6216111;23;20011;-71
2023/05/10 08:32:27;;;;;;;24.63;14.90;;;19.00;78.30;;;;;;6216623;23;20004;-71
2023/05/10 08:34:53;;;;;;;22.40;15.05;;;19.00;78.10;;;;;;6216591;23;20059;-71
2023/05/10 08:37:19;;;;;;;24.80;16.13;;;18.90;78.20;;;;;;6216421;23;20404;-71
2023/05/10 08:39:47;;;;;;;20.13;14.38;;;18.90;78.40;;;;;;6216149;23;20447;-71
2023/05/10 08:42:13;;;;;;;24.23;16.05;;;18.90;78.50;;;;;;6216422;23;20001;-71
2023/05/10 08:44:38;;;;;;;23.77;16.10;;;18.80;78.60;;;;;;6189972;23;20009;-71
2023/05/10 08:47:06;;;;;;;20.63;15.52;;;18.80;79.90;;;;;;6216271;23;20004;-71
2023/05/10 08:49:32;;;;;;;23.85;15.18;;;18.80;78.80;;;;;;6190136;23;20055;-71
2023/05/10 08:51:58;;;;;;;22.40;15.35;;;18.80;78.80;;;;;;6189220;23;20388;-71
2023/05/10 08:54:24;;;;;;;17.30;12.13;;;18.70;78.60;;;;;;6213265;23;19996;-70
2023/05/10 08:56:49;;;;;;;20.85;11.75;;;18.70;77.70;;;;;;6213328;23;20034;-70
2023/05/10 08:59:15;;;;;;;24.33;13.50;;;18.60;77.30;;;;;;6213578;23;20067;-70
2023/05/10 09:01:42;;;;;;;22.15;11.88;;;18.70;77.40;;;;;;6214509;23;20001;-70
2023/05/10 09:04:07;;;;;;;17.65;11.63;;;18.60;77.30;;;;;;6214588;23;20032;-70
2023/05/10 09:06:33;;;;;;;19.73;11.80;;;18.60;77.50;;;;;;6213723;23;20044;-70
2023/05/10 09:08:58;;;;;;;19.10;11.80;;;18.60;77.40;;;;;;6212623;23;19996;-70
2023/05/10 09:11:24;;;;;;;20.35;11.10;;;18.50;77.40;;;;;;6186833;23;20011;-70
2023/05/10 09:13:50;;;;;;;20.42;11.00;;;18.50;77.30;;;;;;6187093;23;20005;-70
2023/05/10 09:16:16;;;;;;;20.40;10.55;;;18.50;77.20;;;;;;6187395;23;20012;-70
2023/05/10 09:18:41;;;;;;;17.83;10.55;;;18.50;77.40;;;;;;6212203;23;20341;-70
2023/05/10 09:21:07;;;;;;;20.20;10.23;;;18.40;77.30;;;;;;6213910;23;20001;-70
2023/05/10 09:23:33;;;;;;;16.52;9.60;;;18.40;77.30;;;;;;6211984;23;20003;-70
2023/05/10 09:26:05;;;;;;;20.13;10.27;;;18.40;77.20;;;;;;6214738;23;20024;-70
2023/05/10 09:28:34;;;;;;;20.55;10.02;;;18.40;77.30;;;;;;6213907;23;20023;-70
2023/05/10 09:31:00;;;;;;;16.92;9.38;;;18.40;77.20;;;;;;6213252;23;20408;-70
2023/05/10 09:33:25;;;;;;;20.73;9.20;;;18.30;77.20;;;;;;6213896;23;20000;-70
2023/05/10 09:35:51;;;;;;;14.88;9.25;;;18.30;77.00;;;;;;6215105;23;20445;-70
2023/05/10 09:38:17;;;;;;;19.98;9.05;;;18.30;76.90;;;;;;6213535;23;20108;-70
2023/05/10 09:40:43;;;;;;;16.00;8.50;;;18.30;77.00;;;;;;6213810;23;20024;-70
2023/05/10 09:43:10;;;;;;;15.60;8.20;;;18.30;77.00;;;;;;6188518;23;20345;-70
2023/05/10 09:45:36;;;;;;;17.52;7.95;;;18.20;76.90;;;;;;6215329;23;19997;-70
2023/05/10 09:48:02;;;;;;;18.75;8.25;;;18.20;76.90;;;;;;6214992;23;20050;-70
2023/05/10 09:50:28;;;;;;;16.92;8.65;;;18.20;77.00;;;;;;6213654;23;20134;-70
2023/05/10 09:52:54;;;;;;;16.42;7.72;;;18.20;77.00;;;;;;6215203;23;20008;-70
2023/05/10 09:55:23;;;;;;;18.67;7.65;;;18.20;76.90;;;;;;6214966;23;20005;-70
2023/05/10 09:57:50;;;;;;;16.23;8.27;;;18.20;76.80;;;;;;6188934;23;20032;-70
2023/05/10 10:00:19;;;;;;;17.85;7.85;;;18.10;76.80;;;;;;6213345;23;20084;-70
2023/05/10 10:02:53;;;;;;;13.48;6.85;;;18.10;76.70;;;;;;6213531;23;20079;-70
2023/05/10 10:05:19;;;;;;;19.73;8.20;;;18.10;76.70;;;;;;6213435;23;19996;-70
2023/05/10 10:07:44;;;;;;;17.70;7.60;;;18.10;76.80;;;;;;6213089;23;20074;-70
2023/05/10 10:10:12;;;;;;;13.60;7.35;;;18.10;76.80;;;;;;6213571;23;20008;-70
2023/05/10 10:12:39;;;;;;;13.00;6.45;;;18.10;77.80;;;;;;6213353;23;20001;-70
2023/05/10 10:15:06;;;;;;;11.80;6.50;;;18.10;76.60;;;;;;6213287;23;20004;-70
2023/05/10 10:17:32;;;;;;;13.23;6.43;;;18.10;76.60;;;;;;6213565;23;20001;-70
2023/05/10 10:19:58;;;;;;;15.13;6.53;;;18.00;76.60;;;;;;6213294;23;20009;-70
2023/05/10 10:22:23;;;;;;;17.23;6.65;;;18.00;76.30;;;;;;6213015;23;20000;-70
2023/05/10 10:24:50;;;;;;;13.02;6.00;;;18.10;76.30;;;;;;6214982;23;20024;-70
2023/05/10 10:27:26;;;;;;;13.25;6.05;;;18.00;76.20;;;;;;6188271;23;20001;-70
2023/05/10 10:30:11;;;;;;;17.02;7.10;;;18.00;76.10;;;;;;6213302;23;20441;-70
2023/05/10 10:33:00;;;;;;;14.63;6.78;;;18.00;76.20;;;;;;6213301;23;20009;-70
2023/05/10 10:35:25;;;;;;;11.98;6.30;;;18.00;76.20;;;;;;6213005;23;20000;-70
2023/05/10 10:37:51;;;;;;;12.13;5.50;;;18.00;76.30;;;;;;6188081;23;20005;-70
2023/05/10 10:40:30;;;;;;;12.13;5.80;;;18.00;76.30;;;;;;6213203;23;20005;-70
2023/05/10 10:42:56;;;;;;;11.05;5.72;;;18.00;76.30;;;;;;6213216;23;20028;-70
2023/05/10 10:45:22;;;;;;;12.02;5.90;;;18.00;76.30;;;;;;6213345;23;20027;-70
2023/05/10 10:47:49;;;;;;;14.60;5.53;;;18.00;76.40;;;;;;6213253;23;20035;-70
2023/05/10 10:50:16;;;;;;;11.43;5.68;;;18.00;76.40;;;;;;6212985;23;20005;-70
2023/05/10 10:52:45;;;;;;;11.60;6.28;;;18.00;76.50;;;;;;6214894;23;20003;-70
2023/05/10 10:55:17;;;;;;;13.20;5.32;;;17.90;76.50;;;;;;6188113;23;20012;-70
2023/05/10 10:57:45;;;;;;;10.65;5.53;;;17.90;76.40;;;;;;6213138;23;20008;-70
2023/05/10 11:00:30;;;;;;;11.20;4.95;;;17.90;76.40;;;;;;6214314;23;20034;-70
2023/05/10 11:03:18;;;;;;;11.48;5.47;;;17.90;76.30;;;;;;6214610;23;20005;-70
2023/05/10 11:05:47;;;;;;;12.20;5.05;;;17.90;76.30;;;;;;6212973;23;20429;-70
2023/05/10 11:08:27;;;;;;;13.60;5.18;;;17.90;76.20;;;;;;6213092;23;20009;-70
2023/05/10 11:10:59;;;;;;;11.20;5.70;;;17.90;76.20;;;;;;6190123;23;20032;-70
2023/05/10 11:13:32;;;;;;;11.43;5.07;;;17.90;76.30;;;;;;6214603;23;20005;-70
2023/05/10 11:15:58;;;;;;;11.07;4.65;;;17.90;76.20;;;;;;6188304;23;20009;-70
2023/05/10 11:18:29;;;;;;;10.60;4.90;;;17.80;75.90;;;;;;6212814;23;20004;-70
2023/05/10 11:21:06;;;;;;;10.98;4.70;;;17.80;75.70;;;;;;6214633;23;20004;-70
2023/05/10 11:23:47;;;;;;;13.23;4.68;;;17.80;75.70;;;;;;6214840;23;20483;-70
2023/05/10 11:26:13;;;;;;;11.32;4.47;;;17.80;75.90;;;;;;6214522;23;19997;-70
2023/05/10 11:28:42;;;;;;;9.73;4.80;;;17.80;75.90;;;;;;6214378;23;20008;-70
2023/05/10 11:31:08;;;;;;;13.35;4.35;;;17.80;75.70;;;;;;6188120;23;20006;-70
2023/05/10 11:33:54;;;;;;;11.25;4.57;;;17.80;75.70;;;;;;6212931;23;20036;-70
2023/05/10 11:36:27;;;;;;;10.40;4.05;;;17.80;75.70;;;;;;6212792;23;20341;-70
2023/05/10 11:38:52;;;;;;;13.73;4.40;;;17.80;75.80;;;;;;6214716;23;20004;-70
2023/05/10 11:41:21;;;;;;;8.60;4.00;;;17.80;75.80;;;;;;6212897;23;20096;-70
2023/05/10 11:43:48;;;;;;;11.82;4.43;;;17.80;75.70;;;;;;6188533;23;20026;-70
2023/05/10 11:46:14;;;;;;;8.98;4.20;;;17.80;75.70;;;;;;6214347;23;20472;-70
2023/05/10 11:48:40;;;;;;;11.80;3.85;;;17.80;75.80;;;;;;6214003;23;20001;-70
2023/05/10 11:51:10;;;;;;;12.27;4.82;;;17.70;75.60;;;;;;6212790;23;20012;-70
2023/05/10 11:53:35;;;;;;;8.85;4.25;;;17.80;75.50;;;;;;6213178;23;20005;-70
2023/05/10 11:56:06;;;;;;;12.73;3.85;;;17.80;75.60;;;;;;6214803;23;20005;-70
2023/05/10 11:58:32;;;;;;;10.90;4.40;;;17.70;75.40;;;;;;6214659;23;20011;-70
2023/05/10 12:01:01;;;;;;;12.35;4.05;;;17.70;75.40;;;;;;6214630;23;20068;-70
2023/05/10 12:03:27;;;;;;;11.23;3.83;;;17.70;75.30;;;;;;6214339;23;20007;-70
2023/05/10 12:05:54;;;;;;;9.63;3.58;;;17.70;75.40;;;;;;6189705;23;19997;-70
2023/05/10 12:08:23;;;;;;;9.00;3.40;;;17.70;75.20;;;;;;6214593;23;20007;-70
2023/05/10 12:10:49;;;;;;;11.60;4.07;;;17.70;75.00;;;;;;6216262;23;20433;-70
2023/05/10 12:13:15;;;;;;;8.93;3.10;;;17.70;75.20;;;;;;6214432;23;20178;-70
2023/05/10 12:15:41;;;;;;;9.60;3.45;;;17.70;75.20;;;;;;6214726;23;20001;-70
2023/05/10 12:18:11;;;;;;;11.43;3.55;;;17.70;75.30;;;;;;6214650;23;20015;-70
2023/05/10 12:20:37;;;;;;;12.40;3.65;;;17.70;75.10;;;;;;6214461;23;20062;-70
2023/05/10 12:23:03;;;;;;;7.63;3.33;;;17.70;75.00;;;;;;6214683;23;20000;-70
2023/05/10 12:25:33;;;;;;;11.63;3.38;;;17.70;75.00;;;;;;6189924;23;20000;-70
2023/05/10 12:28:02;;;;;;;9.88;3.13;;;17.70;74.70;;;;;;6215987;23;20297;-70
2023/05/10 12:30:29;;;;;;;10.45;3.30;;;17.70;74.70;;;;;;6214295;23;20008;-70
2023/05/10 12:33:00;;;;;;;8.18;3.15;;;17.70;74.70;;;;;;6189475;23;20000;-70
2023/05/10 12:35:25;;;;;;;9.35;3.17;;;17.70;74.70;;;;;;6215909;23;20330;-70
2023/05/10 12:37:51;;;;;;;9.13;3.13;;;17.70;74.80;;;;;;6215833;23;20001;-70
2023/05/10 12:40:17;;;;;;;6.90;2.85;;;17.70;74.60;;;;;;6214012;23;20063;-70
2023/05/10 12:42:44;;;;;;;8.43;3.30;;;17.70;74.40;;;;;;6215971;23;20001;-70